Time;durP1;ratioP1;P1;durP2;ratioP2;P2;SDS_P1;SDS_P2;PMS_P1;PMS_P2;Temp;Humidity;BMP_temperature;BMP_pressure;BME280_temperature;BME280_humidity;BME280_pressure;Samples;Min_cycle;Max_cycle;Signal;HPM_P1;HPM_P2
2021/04/08 00:02:21;;;;;;;0.80;0.77;;;2.10;99.90;;;2.68;100.00;43381.03;4974100;28;20192;-66
2021/04/08 00:04:48;;;;;;;0.80;0.70;;;2.10;99.90;;;2.76;100.00;44910.78;4974071;28;20200;-67
2021/04/08 00:07:15;;;;;;;0.70;0.60;;;2.10;99.90;;;2.58;100.00;42362.47;4972787;28;20196;-67
2021/04/08 00:09:42;;;;;;;0.70;0.60;;;2.10;99.90;;;2.62;100.00;41080.44;4973885;28;20235;-66
2021/04/08 00:12:10;;;;;;;0.80;0.70;;;2.10;99.90;;;2.51;100.00;39115.63;4977487;28;20220;-66
2021/04/08 00:14:37;;;;;;;0.70;0.60;;;2.10;99.90;;;2.90;100.00;38544.06;4973589;28;20610;-67
2021/04/08 00:17:03;;;;;;;0.70;0.60;;;2.10;99.90;;;2.65;100.00;32226.22;4973890;28;20192;-66
2021/04/08 00:19:31;;;;;;;0.70;0.70;;;2.10;99.90;;;2.74;100.00;32218.75;4973733;28;20271;-67
2021/04/08 00:21:58;;;;;;;0.70;0.70;;;2.10;99.90;;;2.73;100.00;30072.34;4973909;28;20246;-66
2021/04/08 00:24:25;;;;;;;0.70;0.70;;;2.10;99.90;;;2.68;100.00;29344.09;4973784;28;20263;-67
2021/04/08 00:26:52;;;;;;;0.70;0.70;;;2.10;99.90;;;2.66;100.00;28376.53;4973567;28;20223;-68
2021/04/08 00:29:19;;;;;;;0.70;0.63;;;2.10;99.90;;;2.76;100.00;28145.94;4975276;28;20545;-66
2021/04/08 00:31:46;;;;;;;0.70;0.60;;;2.00;99.90;;;2.61;100.00;25270.75;4975370;28;20340;-68
2021/04/08 00:34:13;;;;;;;0.75;0.70;;;2.00;99.90;;;2.60;100.00;24688.84;4977609;28;20739;-68
2021/04/08 00:36:41;;;;;;;0.70;0.70;;;2.00;99.90;;;2.47;100.00;24028.34;4980505;28;20203;-67
2021/04/08 00:39:08;;;;;;;0.70;0.60;;;2.00;99.90;;;2.56;100.00;25644.69;4977222;28;20203;-66
2021/04/08 00:41:35;;;;;;;0.80;0.80;;;2.00;99.90;;;2.62;100.00;24536.63;4974198;28;20189;-66
2021/04/08 00:44:03;;;;;;;0.70;0.60;;;2.00;99.90;;;2.42;100.00;21834.72;4975679;28;20236;-68
2021/04/08 00:46:30;;;;;;;0.70;0.60;;;2.00;99.90;;;2.66;100.00;23661.16;4976011;28;20707;-67
2021/04/08 00:48:58;;;;;;;0.70;0.70;;;2.00;99.90;;;2.54;100.00;20337.03;4978631;28;20540;-66
2021/04/08 00:51:27;;;;;;;0.70;0.60;;;2.00;99.90;;;2.69;100.00;18903.53;4977909;28;20383;-66
2021/04/08 00:53:56;;;;;;;0.80;0.70;;;2.00;99.90;;;2.41;100.00;15862.53;4976841;28;20180;-67
2021/04/08 00:56:23;;;;;;;0.70;0.70;;;2.00;99.90;;;2.58;100.00;16473.03;4975283;28;20254;-67
2021/04/08 00:58:51;;;;;;;0.70;0.60;;;2.00;99.90;;;2.54;100.00;15576.47;4975200;28;20227;-67
2021/04/08 01:01:18;;;;;;;0.70;0.63;;;2.00;99.90;;;2.55;100.00;14262.13;4976657;28;20239;-66
2021/04/08 01:03:45;;;;;;;0.70;0.70;;;2.00;99.90;;;2.61;100.00;13154.53;4974884;28;20239;-67
2021/04/08 01:06:12;;;;;;;0.70;0.63;;;2.00;99.90;;;2.62;100.00;12730.25;4976267;28;20184;-68
2021/04/08 01:08:40;;;;;;;0.70;0.70;;;2.00;99.90;;;2.40;100.00;11496.00;4974835;28;20199;-66
2021/04/08 01:11:08;;;;;;;0.70;0.60;;;2.00;99.90;;;2.48;100.00;10806.34;4989356;28;20208;-66
2021/04/08 01:13:37;;;;;;;0.70;0.60;;;2.00;99.90;;;2.48;100.00;10674.03;4976357;28;20227;-67
2021/04/08 01:16:13;;;;;;;0.70;0.65;;;2.00;99.90;;;2.39;100.00;10440.03;4976596;28;20204;-67
2021/04/08 01:18:53;;;;;;;0.70;0.60;;;2.00;99.90;;;2.46;100.00;10633.63;4976872;28;20191;-67
2021/04/08 01:21:35;;;;;;;0.80;0.70;;;2.00;99.90;;;2.45;100.00;11232.53;4975208;28;20227;-66
2021/04/08 01:24:44;;;;;;;0.70;0.60;;;1.90;99.90;;;2.54;100.00;10588.13;4962672;28;20227;-66
2021/04/08 01:27:29;;;;;;;0.70;0.60;;;2.00;99.90;;;2.42;100.00;10208.69;4974287;28;20208;-66
2021/04/08 01:30:45;;;;;;;0.70;0.60;;;1.90;99.90;;;2.25;100.00;10526.53;4971342;28;20192;-66
2021/04/08 01:33:18;;;;;;;0.70;0.60;;;1.90;99.90;;;2.26;100.00;12810.38;4934990;29;20268;-66
2021/04/08 01:35:48;;;;;;;0.70;0.70;;;1.80;99.90;;;2.38;100.00;11453.06;4967949;28;20627;-67
2021/04/08 01:38:27;;;;;;;0.70;0.60;;;1.90;99.90;;;2.42;100.00;8492.38;4975112;28;20184;-67
2021/04/08 01:40:55;;;;;;;0.70;0.60;;;1.90;99.90;;;2.39;100.00;7379.69;4975759;28;20184;-68
2021/04/08 01:43:27;;;;;;;0.70;0.60;;;1.90;99.90;;;2.46;100.00;5675.84;4972782;28;20209;-67
2021/04/08 01:45:58;;;;;;;0.70;0.70;;;1.90;99.90;;;2.38;100.00;4835.06;4960874;28;20691;-67
2021/04/08 01:48:27;;;;;;;0.70;0.70;;;1.90;99.90;;;2.27;100.00;5354.06;4974830;28;20196;-66
2021/04/08 01:51:00;;;;;;;0.70;0.68;;;1.80;99.90;;;2.16;100.00;6119.63;4975136;28;20648;-67
2021/04/08 01:53:28;;;;;;;0.70;0.60;;;1.70;99.90;;;2.08;100.00;6641.50;4958470;28;20196;-67
2021/04/08 01:55:59;;;;;;;0.70;0.60;;;1.70;99.90;;;2.20;100.00;7493.19;4975720;28;20549;-67
2021/04/08 01:58:29;;;;;;;0.70;0.60;;;1.80;99.90;;;2.17;100.00;6438.69;4975394;28;20282;-67
2021/04/08 02:00:58;;;;;;;0.80;0.70;;;1.80;99.90;;;2.14;100.00;6084.50;4974286;28;20195;-68
2021/04/08 02:03:26;;;;;;;0.77;0.75;;;1.80;99.90;;;2.32;100.00;7557.84;4974367;28;20223;-68
2021/04/08 02:05:55;;;;;;;0.80;0.70;;;1.80;99.90;;;2.24;100.00;5550.47;4975767;28;20197;-66
2021/04/08 02:08:23;;;;;;;0.70;0.60;;;1.80;99.90;;;2.20;100.00;7191.72;5006871;28;20251;-68
2021/04/08 02:10:50;;;;;;;0.73;0.70;;;1.80;99.90;;;2.14;100.00;6189.06;4975721;28;20227;-69
2021/04/08 02:13:18;;;;;;;0.80;0.80;;;1.80;99.90;;;2.31;100.00;5763.25;4971758;28;20223;-67
2021/04/08 02:15:47;;;;;;;0.70;0.60;;;1.80;99.90;;;2.13;100.00;3850.63;4975476;28;20184;-67
2021/04/08 02:18:17;;;;;;;0.70;0.70;;;1.80;99.90;;;2.14;100.00;4659.88;4974833;28;20181;-66
2021/04/08 02:20:47;;;;;;;0.70;0.70;;;1.70;99.90;;;1.98;100.00;4928.97;4975613;28;20184;-67
2021/04/08 02:23:21;;;;;;;0.80;0.70;;;1.70;99.90;;;2.16;100.00;6039.91;4974195;28;20664;-67
2021/04/08 02:25:49;;;;;;;0.80;0.70;;;1.70;99.90;;;2.22;100.00;3799.41;4974804;28;20208;-66
2021/04/08 02:28:18;;;;;;;0.73;0.70;;;1.70;99.90;;;2.23;100.00;2868.59;4974945;28;20584;-66
2021/04/08 02:30:46;;;;;;;0.70;0.70;;;1.80;99.90;;;2.31;100.00;674.66;4974908;28;20188;-67
2021/04/08 02:33:23;;;;;;;0.80;0.70;;;1.80;99.90;;;2.32;100.00;-1364.50;4975150;28;20203;-67
2021/04/08 02:35:51;;;;;;;0.75;0.70;;;1.80;99.90;;;2.30;100.00;-2299.19;4968677;28;20633;-67
2021/04/08 02:38:20;;;;;;;0.70;0.70;;;1.80;99.90;;;2.13;100.00;-2369.19;4974894;28;20204;-67
2021/04/08 02:40:47;;;;;;;0.70;0.60;;;1.80;99.90;;;2.18;100.00;-957.41;4973953;28;20207;-66
2021/04/08 02:43:15;;;;;;;0.70;0.60;;;1.80;99.90;;;2.30;100.00;-1511.25;4974934;28;20250;-67
2021/04/08 02:45:43;;;;;;;0.70;0.70;;;1.80;99.90;;;2.41;100.00;-3221.00;4973349;28;21389;-66
2021/04/08 02:48:14;;;;;;;0.90;0.90;;;1.90;99.90;;;2.37;100.00;-4326.66;4974963;28;20180;-66
2021/04/08 02:50:44;;;;;;;0.70;0.70;;;1.90;99.90;;;2.58;100.00;-4135.47;4973290;28;20306;-67
2021/04/08 02:53:22;;;;;;;0.70;0.60;;;1.90;99.90;;;2.51;100.00;-6050.59;4975201;28;20521;-66
2021/04/08 02:55:54;;;;;;;0.70;0.70;;;2.00;99.90;;;2.46;100.00;-6328.53;4974877;28;20207;-66
2021/04/08 02:58:28;;;;;;;0.70;0.60;;;2.00;99.90;;;2.40;100.00;-4813.53;4967884;28;20231;-67
2021/04/08 03:01:00;;;;;;;0.70;0.60;;;2.00;99.90;;;2.41;100.00;-2085.13;4974693;28;20176;-67
2021/04/08 03:03:33;;;;;;;0.80;0.70;;;2.00;99.90;;;2.54;100.00;-1537.72;4974281;28;20192;-66
2021/04/08 03:06:06;;;;;;;0.70;0.60;;;2.00;99.90;;;2.39;100.00;-742.53;4974645;28;20196;-67
2021/04/08 03:08:35;;;;;;;0.80;0.70;;;2.00;99.90;;;2.56;100.00;1077.16;4974431;28;20189;-66
2021/04/08 03:11:04;;;;;;;0.73;0.70;;;2.00;99.90;;;2.62;100.00;-92.03;4974673;28;20272;-67
2021/04/08 03:13:36;;;;;;;0.80;0.73;;;2.00;99.90;;;2.59;100.00;452.72;4973350;28;20218;-66
2021/04/08 03:16:17;;;;;;;0.70;0.68;;;2.00;99.90;;;2.56;100.00;1057.25;4974679;28;20204;-67
2021/04/08 03:18:47;;;;;;;0.70;0.60;;;2.00;99.90;;;2.48;100.00;1656.41;4974503;28;20192;-66
2021/04/08 03:21:16;;;;;;;0.70;0.60;;;2.00;99.90;;;2.51;100.00;979.69;4974794;28;20180;-67
2021/04/08 03:23:44;;;;;;;0.70;0.70;;;2.00;99.90;;;2.49;100.00;1265.75;4974026;28;20590;-67
2021/04/08 03:26:13;;;;;;;0.70;0.60;;;2.00;99.90;;;2.39;100.00;2691.13;4974178;28;20203;-67
2021/04/08 03:28:42;;;;;;;0.70;0.60;;;2.00;99.90;;;2.66;100.00;4084.03;4972703;28;20776;-67
2021/04/08 03:31:12;;;;;;;0.70;0.60;;;2.00;99.90;;;2.44;100.00;2193.69;4975658;28;20197;-67
2021/04/08 03:33:40;;;;;;;0.80;0.77;;;2.00;99.90;;;2.37;100.00;3253.50;4974175;28;20196;-67
2021/04/08 03:36:09;;;;;;;0.80;0.70;;;1.90;99.90;;;2.46;100.00;4101.28;4974574;28;20192;-67
2021/04/08 03:38:36;;;;;;;0.70;0.60;;;1.90;99.90;;;2.26;100.00;4594.31;4972162;28;20200;-67
2021/04/08 03:41:03;;;;;;;0.70;0.60;;;1.90;99.90;;;2.22;100.00;6738.53;4970166;28;20235;-66
2021/04/08 03:43:31;;;;;;;0.70;0.60;;;1.80;99.90;;;2.33;100.00;6453.88;4973446;28;20267;-66
2021/04/08 03:46:01;;;;;;;0.70;0.60;;;1.90;99.90;;;2.20;100.00;7054.56;4972823;28;20263;-66
2021/04/08 03:48:30;;;;;;;0.80;0.70;;;1.80;99.90;;;2.17;100.00;7958.78;4973902;28;20549;-67
2021/04/08 03:50:58;;;;;;;0.70;0.60;;;1.80;99.90;;;2.21;100.00;7062.22;4974103;28;20192;-67
2021/04/08 03:53:26;;;;;;;0.70;0.70;;;1.80;99.90;;;2.23;100.00;7448.88;4973805;28;20247;-67
2021/04/08 03:55:55;;;;;;;0.70;0.60;;;1.80;99.90;;;2.16;100.00;8731.38;4974678;28;20208;-67
2021/04/08 03:58:24;;;;;;;0.70;0.60;;;1.80;99.90;;;2.15;100.00;9910.72;4973503;28;20220;-67
2021/04/08 04:00:52;;;;;;;0.80;0.70;;;1.80;99.90;;;2.29;100.00;11036.41;4973628;28;20187;-67
2021/04/08 04:03:20;;;;;;;0.70;0.70;;;1.80;99.90;;;2.17;100.00;10417.38;4975363;28;20630;-67
2021/04/08 04:05:47;;;;;;;0.70;0.60;;;1.90;99.90;;;2.36;100.00;13477.41;4977606;28;20684;-67
2021/04/08 04:08:14;;;;;;;0.70;0.60;;;1.90;99.90;;;2.48;100.00;10399.50;4978585;28;20192;-67
2021/04/08 04:10:42;;;;;;;0.70;0.60;;;1.90;99.90;;;2.39;100.00;6756.47;4978016;28;20192;-68
2021/04/08 04:13:13;;;;;;;0.70;0.70;;;1.90;99.90;;;2.38;100.00;5756.97;4976028;28;20231;-67
2021/04/08 04:15:45;;;;;;;0.70;0.60;;;1.90;99.90;;;2.53;100.00;5415.25;4977756;28;20527;-66
2021/04/08 04:18:16;;;;;;;0.75;0.75;;;2.00;99.90;;;2.59;100.00;3537.56;4977753;28;20525;-67
2021/04/08 04:20:44;;;;;;;0.70;0.60;;;2.00;99.90;;;2.56;100.00;-756.66;4976383;28;20538;-65
2021/04/08 04:23:12;;;;;;;0.80;0.73;;;2.00;99.90;;;2.63;100.00;89.66;4977934;28;20181;-66
2021/04/08 04:25:39;;;;;;;1.25;1.15;;;2.00;99.90;;;2.55;100.00;-2204.09;4977006;28;20204;-67
2021/04/08 04:28:07;;;;;;;0.70;0.70;;;2.00;99.90;;;2.68;100.00;-2517.09;4977216;28;20240;-67
2021/04/08 04:30:34;;;;;;;0.70;0.60;;;2.10;99.90;;;2.67;100.00;-3852.16;4975997;28;20195;-66
2021/04/08 04:33:02;;;;;;;0.70;0.60;;;2.00;99.90;;;2.76;100.00;-2790.47;4977364;28;20687;-66
2021/04/08 04:35:29;;;;;;;0.70;0.70;;;2.00;99.90;;;2.66;100.00;-3258.06;4976543;28;20653;-66
2021/04/08 04:37:56;;;;;;;0.70;0.60;;;2.00;99.90;;;2.54;100.00;-3379.94;4977367;28;20188;-66
2021/04/08 04:40:24;;;;;;;0.75;0.70;;;2.00;99.90;;;2.70;100.00;-3292.81;4977485;28;20208;-68
2021/04/08 04:42:50;;;;;;;0.70;0.60;;;2.10;99.90;;;2.54;100.00;-2989.72;4976723;28;20800;-67
2021/04/08 04:45:17;;;;;;;0.70;0.60;;;2.10;99.90;;;2.50;100.00;-1806.41;4977461;28;20204;-67
2021/04/08 04:47:46;;;;;;;0.70;0.70;;;2.00;99.90;;;2.62;100.00;-2273.53;4977067;28;20274;-66
2021/04/08 04:50:14;;;;;;;1.13;1.08;;;2.10;99.90;;;2.42;100.00;-3481.91;4977688;28;20288;-65
2021/04/08 04:52:42;;;;;;;0.70;0.60;;;2.10;99.90;;;2.67;100.00;-2810.50;4975554;28;20207;-67
2021/04/08 04:55:11;;;;;;;0.70;0.60;;;2.10;99.90;;;2.58;100.00;-2626.69;4975243;28;20254;-66
2021/04/08 04:57:38;;;;;;;0.70;0.70;;;2.10;99.90;;;2.59;100.00;-2437.72;4974386;28;20220;-66
2021/04/08 05:00:07;;;;;;;0.70;0.60;;;2.10;99.90;;;2.53;100.00;-2646.69;4976280;28;20192;-67
2021/04/08 05:02:34;;;;;;;0.70;0.60;;;2.10;99.90;;;2.52;100.00;-1318.94;4975030;28;20653;-66
2021/04/08 05:05:03;;;;;;;0.70;0.60;;;2.00;99.90;;;2.48;100.00;-2442.94;4976660;28;20207;-67
2021/04/08 05:07:30;;;;;;;0.70;0.70;;;2.00;99.90;;;2.50;100.00;-261.94;4975358;28;20612;-67
2021/04/08 05:09:57;;;;;;;0.70;0.60;;;2.00;99.90;;;2.63;100.00;-141.75;4975332;28;20206;-67
2021/04/08 05:12:24;;;;;;;0.70;0.60;;;2.10;99.90;;;2.54;100.00;-97.50;4975764;28;20215;-67
2021/04/08 05:14:51;;;;;;;1.40;1.30;;;2.10;99.90;;;2.56;100.00;1430.59;4975134;28;20184;-66
2021/04/08 05:17:19;;;;;;;0.70;0.60;;;2.10;99.90;;;2.60;100.00;1824.34;4974534;28;20204;-66
2021/04/08 05:19:46;;;;;;;0.70;0.60;;;2.10;99.90;;;2.60;100.00;701.69;4976243;28;20194;-67
2021/04/08 05:22:14;;;;;;;0.70;0.60;;;2.10;99.90;;;2.75;100.00;872.06;4976498;28;20192;-66
2021/04/08 05:24:41;;;;;;;0.70;0.60;;;2.20;99.90;;;2.67;100.00;-44.44;4975672;28;20208;-67
2021/04/08 05:27:09;;;;;;;0.98;0.88;;;2.20;99.90;;;2.97;100.00;791.53;4971193;28;20294;-66
2021/04/08 05:29:40;;;;;;;0.70;0.60;;;2.20;99.90;;;2.96;100.00;-2678.19;4976396;28;20185;-67
2021/04/08 05:32:08;;;;;;;0.70;0.60;;;2.30;99.90;;;2.94;100.00;-1406.81;4976109;28;20200;-66
2021/04/08 05:34:35;;;;;;;0.70;0.70;;;2.30;99.90;;;3.04;100.00;401.09;4975841;28;20180;-67
2021/04/08 05:37:02;;;;;;;0.70;0.60;;;2.30;99.90;;;3.00;100.00;-2028.72;4974397;28;20204;-67
2021/04/08 05:39:30;;;;;;;0.80;0.80;;;2.40;99.90;;;3.18;100.00;-5824.28;4973722;28;20707;-67
2021/04/08 05:41:57;;;;;;;0.70;0.60;;;2.40;99.90;;;3.23;100.00;-4357.16;4975710;28;20216;-66
2021/04/08 05:44:25;;;;;;;0.80;0.70;;;2.40;99.90;;;3.31;100.00;-8628.50;4975547;28;20664;-67
2021/04/08 05:46:51;;;;;;;0.70;0.60;;;2.50;99.90;;;3.22;100.00;-12887.94;4975927;28;20594;-67
2021/04/08 05:49:19;;;;;;;0.70;0.60;;;2.50;99.90;;;3.26;100.00;-12275.56;4976018;28;20242;-66
2021/04/08 05:51:46;;;;;;;0.70;0.60;;;2.50;99.90;;;3.19;100.00;-12148.13;4975691;28;20247;-66
2021/04/08 05:54:12;;;;;;;0.70;0.60;;;2.60;99.90;;;3.48;100.00;-11407.09;4975878;28;20251;-66
2021/04/08 05:56:40;;;;;;;0.70;0.65;;;2.60;99.90;;;3.30;100.00;-13174.41;4974806;28;20565;-67
2021/04/08 05:59:07;;;;;;;0.70;0.60;;;2.60;99.90;;;3.68;100.00;-10366.16;4973858;28;20646;-66
2021/04/08 06:01:34;;;;;;;0.70;0.60;;;2.60;99.90;;;3.29;100.00;-15280.03;4975651;28;20279;-67
2021/04/08 06:04:01;;;;;;;0.70;0.60;;;2.70;99.90;;;3.26;100.00;-14441.25;4975288;28;20199;-66
2021/04/08 06:06:28;;;;;;;0.70;0.60;;;2.80;99.90;;;3.71;100.00;-14994.88;4975166;28;20561;-68
2021/04/08 06:08:55;;;;;;;0.70;0.60;;;2.80;99.90;;;3.83;100.00;-17929.38;4975883;28;20701;-67
2021/04/08 06:11:22;;;;;;;0.75;0.70;;;2.90;99.90;;;3.96;100.00;-18862.03;4973136;28;20204;-67
2021/04/08 06:13:51;;;;;;;0.70;0.60;;;2.90;99.90;;;3.90;100.00;-19678.56;4974614;28;20275;-66
2021/04/08 06:16:18;;;;;;;0.70;0.60;;;3.00;99.90;;;3.94;100.00;-19344.97;4970481;28;20193;-69
2021/04/08 06:18:51;;;;;;;0.70;0.60;;;3.10;99.90;;;4.04;100.00;-19064.84;4967699;28;20275;-68
2021/04/08 06:21:18;;;;;;;0.70;0.70;;;3.10;99.90;;;4.10;100.00;-19973.81;5003415;28;20720;-66
2021/04/08 06:23:45;;;;;;;0.70;0.60;;;3.20;99.90;;;3.91;100.00;-20788.53;4977520;28;20200;-66
2021/04/08 06:26:13;;;;;;;0.70;0.60;;;3.30;99.90;;;3.99;100.00;-20620.25;4970787;28;20212;-66
2021/04/08 06:28:40;;;;;;;0.70;0.70;;;3.30;99.90;;;4.24;100.00;-19883.31;4973724;28;20220;-66
2021/04/08 06:31:09;;;;;;;0.70;0.60;;;3.50;99.90;;;4.30;100.00;-18768.59;4974747;28;20196;-67
2021/04/08 06:33:36;;;;;;;0.70;0.60;;;3.50;99.90;;;4.72;100.00;-19558.06;4972463;28;20550;-66
2021/04/08 06:36:08;;;;;;;0.70;0.60;;;3.50;99.90;;;4.49;100.00;-20804.41;4982097;28;20184;-66
2021/04/08 06:38:35;;;;;;;0.70;0.70;;;3.50;99.90;;;4.30;100.00;-20799.25;4975369;28;20200;-67
2021/04/08 06:41:02;;;;;;;0.70;0.60;;;3.50;99.90;;;4.19;100.00;-20796.19;4974965;28;20185;-66
2021/04/08 06:43:32;;;;;;;0.70;0.60;;;3.60;99.90;;;4.33;100.00;-20049.38;4973522;28;20219;-66
2021/04/08 06:46:00;;;;;;;0.73;0.65;;;3.70;99.90;;;4.92;100.00;-18793.47;5004669;28;20681;-66
2021/04/08 06:48:42;;;;;;;0.70;0.60;;;3.70;99.90;;;4.40;100.00;-20801.91;4974210;28;20664;-66
2021/04/08 06:51:13;;;;;;;0.70;0.60;;;3.80;99.90;;;4.54;100.00;-20486.31;4973762;28;20482;-67
2021/04/08 06:53:40;;;;;;;0.70;0.60;;;3.90;99.90;;;4.34;100.00;-20332.34;4955993;28;20175;-66
2021/04/08 06:56:08;;;;;;;0.70;0.60;;;3.90;99.90;;;4.92;100.00;-17812.31;4972613;28;20199;-67
2021/04/08 06:58:38;;;;;;;0.80;0.68;;;3.90;99.90;;;4.89;100.00;-19420.94;4973139;28;20214;-66
2021/04/08 07:01:26;;;;;;;0.70;0.60;;;4.00;99.90;;;4.81;100.00;-19466.03;4970386;28;20283;-68
2021/04/08 07:03:55;;;;;;;0.70;0.60;;;4.40;99.90;;;5.22;100.00;-17031.19;4973373;28;20177;-66
2021/04/08 07:06:22;;;;;;;0.70;0.60;;;4.90;99.90;;;5.57;100.00;-16235.25;4974588;28;20212;-66
2021/04/08 07:08:49;;;;;;;0.70;0.60;;;4.90;99.90;;;5.82;100.00;-16334.78;4974979;28;20471;-67
2021/04/08 07:11:16;;;;;;;0.70;0.60;;;4.80;99.90;;;5.90;100.00;-18448.78;4974734;28;20522;-66
2021/04/08 07:13:43;;;;;;;0.70;0.70;;;4.80;99.90;;;6.39;100.00;-19017.81;4974367;28;20509;-66
2021/04/08 07:16:14;;;;;;;0.70;0.60;;;4.90;99.90;;;6.14;100.00;-20757.84;4974620;28;20431;-66
2021/04/08 07:18:41;;;;;;;0.70;0.60;;;5.10;99.90;;;7.05;100.00;-20874.09;4974650;28;20446;-66
2021/04/08 07:21:10;;;;;;;0.70;0.60;;;5.20;99.90;;;6.34;100.00;-20854.66;4974965;28;20436;-66
2021/04/08 07:23:37;;;;;;;0.70;0.60;;;5.20;99.90;;;6.24;100.00;-20852.00;4974461;28;20443;-66
2021/04/08 07:26:07;;;;;;;0.70;0.70;;;5.50;99.90;;;6.87;100.00;-20869.25;4974974;28;20471;-66
2021/04/08 07:28:37;;;;;;;0.70;0.60;;;5.70;99.90;;;7.39;100.00;-20883.28;4974636;28;20551;-66
2021/04/08 07:31:25;;;;;;;0.70;0.60;;;6.00;99.90;;;6.84;100.00;-20868.28;4974545;28;20432;-66
2021/04/08 07:33:55;;;;;;;0.70;0.60;;;6.20;99.90;;;7.82;100.00;-20894.94;4972492;28;20441;-66
2021/04/08 07:36:32;;;;;;;0.70;0.60;;;6.30;99.90;;;7.56;100.00;-20888.00;4974226;28;20520;-67
2021/04/08 07:39:03;;;;;;;0.70;0.60;;;6.40;99.80;;;8.58;100.00;-20915.75;4972658;28;20833;-68
2021/04/08 07:41:33;;;;;;;0.70;0.60;;;6.50;98.00;;;7.77;100.00;-20893.53;4974101;28;20517;-66
2021/04/08 07:44:04;;;;;;;0.70;0.60;;;6.50;97.40;;;8.37;100.00;-20910.06;4974908;28;20426;-68
2021/04/08 07:46:42;;;;;;;0.70;0.60;;;6.80;97.80;;;8.30;100.00;-20907.97;4974529;28;20471;-66
2021/04/08 07:49:27;;;;;;;0.70;0.60;;;6.90;95.90;;;8.43;100.00;-20911.59;4974104;28;20450;-66
2021/04/08 07:51:57;;;;;;;0.70;0.60;;;6.80;94.10;;;8.35;100.00;-20909.34;4974401;28;20942;-65
2021/04/08 07:54:24;;;;;;;0.70;0.60;;;6.90;91.30;;;8.04;100.00;-20901.03;4974331;28;20416;-66
2021/04/08 07:56:51;;;;;;;0.70;0.70;;;6.80;90.20;;;8.54;100.00;-20914.50;4973727;28;20473;-66
2021/04/08 07:59:24;;;;;;;0.70;0.60;;;6.80;90.10;;;9.48;100.00;-20940.13;4973667;28;20775;-66
2021/04/08 08:02:00;;;;;;;0.70;0.70;;;6.70;83.30;;;9.72;100.00;-20946.50;4974466;28;20429;-66
2021/04/08 08:04:29;;;;;;;0.70;0.60;;;6.90;82.50;;;8.59;100.00;-20916.03;4973881;28;20467;-66
2021/04/08 08:06:58;;;;;;;0.70;0.60;;;7.50;81.30;;;9.21;100.00;-20932.66;4974190;28;20884;-66
2021/04/08 08:09:29;;;;;;;0.90;0.77;;;7.50;75.40;;;8.52;100.00;-20914.09;4974505;28;20426;-66
2021/04/08 08:12:07;;;;;;;0.80;0.60;;;7.90;74.10;;;9.28;100.00;-20934.72;4973973;28;21077;-66
2021/04/08 08:14:36;;;;;;;0.70;0.60;;;7.90;71.10;;;10.40;100.00;-20965.06;4973782;28;20446;-66
2021/04/08 08:17:06;;;;;;;0.77;0.60;;;8.30;67.60;;;11.00;100.00;-20981.38;4974243;28;20488;-69
2021/04/08 08:19:35;;;;;;;1.30;1.20;;;8.60;64.20;;;11.66;100.00;-20999.06;4974023;28;20956;-68
2021/04/08 08:22:04;;;;;;;2.77;1.27;;;8.00;58.70;;;10.91;100.00;-20978.88;4973923;28;20443;-68
2021/04/08 08:24:32;;;;;;;0.70;0.60;;;7.80;59.30;;;9.32;100.00;-20935.69;4972796;28;20447;-67
2021/04/08 08:26:59;;;;;;;0.80;0.70;;;8.10;60.40;;;10.78;100.00;-20975.28;4973478;28;20935;-68
2021/04/08 08:29:30;;;;;;;0.70;0.63;;;8.50;56.50;;;10.30;100.00;-20962.44;4972380;28;20450;-67
2021/04/08 08:31:59;;;;;;;0.80;0.70;;;7.70;56.20;;;9.49;100.00;-20940.41;4974500;28;20446;-67
2021/04/08 08:34:28;;;;;;;0.80;0.70;;;7.60;57.00;;;8.84;100.00;-20922.81;4973660;28;20430;-67
2021/04/08 08:36:58;;;;;;;0.70;0.60;;;7.60;55.80;;;8.79;100.00;-20921.28;4973652;28;20432;-67
2021/04/08 08:39:28;;;;;;;0.80;0.70;;;7.10;57.40;;;8.53;100.00;-20914.22;4972851;28;20433;-69
2021/04/08 08:41:57;;;;;;;0.70;0.60;;;7.30;58.80;;;9.51;100.00;-20940.97;4973552;28;20620;-67
2021/04/08 08:44:24;;;;;;;0.70;0.60;;;7.30;57.40;;;9.44;100.00;-20939.03;4973550;28;20814;-67
2021/04/08 08:46:58;;;;;;;0.70;0.60;;;7.80;58.10;;;10.71;100.00;-20973.34;4973124;28;20463;-68
2021/04/08 08:49:31;;;;;;;0.70;0.60;;;8.30;51.60;;;10.84;100.00;-20977.09;4973491;28;20439;-67
2021/04/08 08:52:00;;;;;;;0.77;0.70;;;8.20;46.60;;;11.90;100.00;-21005.69;4977413;28;20467;-67
2021/04/08 08:54:33;;;;;;;0.73;0.70;;;8.20;47.50;;;12.39;100.00;-21018.81;4977030;28;20489;-67
2021/04/08 08:57:03;;;;;;;0.80;0.70;;;9.00;48.60;;;12.95;100.00;-21034.13;4975902;28;20847;-67
2021/04/08 08:59:31;;;;;;;0.80;0.60;;;9.80;41.50;;;13.49;100.00;-21048.75;4975849;28;21066;-68
2021/04/08 09:01:59;;;;;;;0.80;0.70;;;9.70;27.50;;;11.48;100.00;-20994.38;4974846;28;20463;-67
2021/04/08 09:04:27;;;;;;;0.80;0.80;;;9.10;30.20;;;10.39;100.00;-20964.78;4976577;28;20424;-68
2021/04/08 09:06:59;;;;;;;1.20;1.10;;;8.10;26.80;;;10.09;100.00;-20956.75;4977268;28;20957;-68
2021/04/08 09:09:29;;;;;;;0.80;0.60;;;7.50;28.00;;;9.65;100.00;-20944.72;4975337;28;20438;-68
2021/04/08 09:11:59;;;;;;;0.70;0.60;;;7.70;31.70;;;9.57;100.00;-20942.63;4976431;28;20468;-67
2021/04/08 09:14:27;;;;;;;0.70;0.60;;;8.00;34.60;;;10.19;100.00;-20959.38;4977685;28;20446;-67
2021/04/08 09:16:55;;;;;;;0.80;0.60;;;8.10;31.50;;;9.53;100.00;-20941.53;4981426;28;20527;-67
2021/04/08 09:19:28;;;;;;;0.80;0.60;;;8.10;29.70;;;10.07;100.00;-20956.06;4975451;28;20438;-68
2021/04/08 09:21:59;;;;;;;0.80;0.80;;;7.60;25.60;;;9.47;100.00;-20939.84;4976707;28;20423;-67
2021/04/08 09:24:37;;;;;;;0.70;0.60;;;7.90;27.10;;;9.16;100.00;-20931.53;4976296;28;20438;-67
2021/04/08 09:27:07;;;;;;;0.80;0.70;;;7.70;25.60;;;8.81;100.00;-20921.97;4972353;28;20486;-68
2021/04/08 09:29:48;;;;;;;0.80;0.63;;;7.80;25.60;;;9.68;100.00;-20945.69;4978437;28;20445;-67
2021/04/08 09:32:29;;;;;;;0.70;0.67;;;8.20;27.60;;;10.11;100.00;-20957.31;4976539;28;20420;-68
2021/04/08 09:35:19;;;;;;;0.70;0.60;;;8.10;22.30;;;10.24;100.00;-20960.63;4976296;28;20433;-68
2021/04/08 09:38:21;;;;;;;0.70;0.60;;;7.70;17.10;;;9.37;100.00;-20937.09;4976557;28;20420;-68
2021/04/08 09:40:58;;;;;;;0.70;0.60;;;8.10;18.40;;;11.45;100.00;-20993.53;4976506;28;20417;-69
2021/04/08 09:43:29;;;;;;;0.70;0.70;;;9.00;18.60;;;13.01;97.71;-21035.78;4975968;28;20466;-68
2021/04/08 09:46:06;;;;;;;0.80;0.70;;;9.90;15.20;;;12.13;95.34;-21011.78;4976429;28;20478;-68
2021/04/08 09:48:57;;;;;;;0.70;0.60;;;10.50;15.50;;;13.41;97.10;-21046.53;4976613;28;20925;-68
2021/04/08 09:51:33;;;;;;;;;;;11.00;13.60;;;13.95;89.18;-21061.16;4963231;28;20662;-68
2021/04/08 09:54:08;;;;;;;;;;;10.80;6.80;;;13.75;88.90;-21055.78;4976882;28;19921;-68
2021/04/08 09:56:55;;;;;;;;;;;10.60;6.80;;;12.72;88.47;-21027.94;4976040;28;20438;-67
2021/04/08 09:59:24;;;;;;;0.88;0.63;;;9.80;5.50;;;12.14;85.04;-21012.19;4975034;28;20487;-68
2021/04/08 10:01:52;;;;;;;0.80;0.70;;;9.00;4.20;;;11.56;91.48;-20996.59;4974157;28;20198;-66
2021/04/08 10:04:22;;;;;;;0.80;0.70;;;9.50;8.30;;;11.79;92.22;-21002.78;4975658;28;20436;-66
2021/04/08 10:07:04;;;;;;;0.90;0.60;;;9.70;9.80;;;11.59;89.14;-20997.28;4974905;28;20730;-68
2021/04/08 10:09:32;;;;;;;0.70;0.63;;;8.90;7.30;;;11.17;88.61;-20985.81;4975780;28;20506;-68
2021/04/08 10:12:00;;;;;;;0.73;0.70;;;8.90;5.90;;;11.41;91.96;-20992.44;4976411;28;20466;-68
2021/04/08 10:14:29;;;;;;;0.77;0.67;;;9.20;8.90;;;12.48;86.69;-21021.31;4975687;28;20449;-67
2021/04/08 10:17:07;;;;;;;0.80;0.60;;;10.00;4.50;;;12.68;87.54;-21026.69;4974321;28;20999;-68
2021/04/08 10:19:39;;;;;;;0.80;0.60;;;11.00;5.50;;;14.05;85.31;-21063.63;4975333;28;20489;-68
2021/04/08 10:22:09;;;;;;;0.70;0.70;;;10.70;1.00;;;12.79;86.23;-21029.72;4975667;28;20431;-68
2021/04/08 10:24:40;;;;;;;0.73;0.60;;;10.60;4.00;;;14.24;85.83;-21069.00;4975577;28;20474;-68
2021/04/08 10:27:17;;;;;;;0.70;0.60;;;11.50;3.80;;;13.80;91.22;-21056.88;4975643;28;20482;-68
2021/04/08 10:29:45;;;;;;;0.70;0.60;;;12.50;7.30;;;15.45;84.17;-21101.63;4973769;28;20490;-67
2021/04/08 10:32:27;;;;;;;0.70;0.60;;;11.70;1.20;;;14.78;82.63;-21083.31;4974785;28;20447;-68
2021/04/08 10:34:54;;;;;;;0.80;0.70;;;10.70;1.00;;;13.97;82.26;-21061.69;4974987;28;20892;-67
2021/04/08 10:37:22;;;;;;;0.70;0.60;;;11.00;1.10;;;14.26;84.71;-21069.41;4975355;28;20423;-66
2021/04/08 10:39:49;;;;;;;0.70;0.60;;;11.90;1.00;;;14.52;85.80;-21076.44;4975489;28;20411;-67